Owen, Wisconsin
Current Conditions -  °F | °C
As of 10:55 PM on Friday 19 Dec 2014 (Local Time) from KMDZ Reporting Station
Overcast Overcast  
Wind Chill: 23°   Ceiling: 2000
Heat Index: 23°   Visibility: 7mi
Dew Point: 20°   Wind: 3mph
Humidity: 91%   Direction: 150°SSE
Pressure: 30.19"   Gusts: NA
Location:  44.95°N, 90.56°W
Report Text: KMDZ 200455Z AUTO 15003KT 7SM OVC020 M05/M06 A3019 RMK AO2 T10521065
Loading
Personal Weather Stations






























Interactive Weather Map New forecast layout! Learn more

10-Day Weather Forecast

Advertisements
Track Severe Weather on mobile